Ssi Glorious — V7XC5 — position and weather

sailwx.info

Track history (hours):
 
Tides and Currents Weather Stations Pressure Air Temp Water Temp Dewpoint Dewpoint Depression Visibility Wind Speed Wind Dir Waves Ship Positions

Ssi Glorious

Last reported at 2018-Apr-19 11:54 UTC. Time now 2018-Apr-24 14:45 UTC.
Position N 35°60' W 005°15'.

Length 190 m; draft 12.3 m.

Type: Cargo ship. MMSI: 538004446.

Date/timePositionNaut miles runAvg speedWind from/ knotsBaromVisibWave heightAir tempDewpointWater temp
2018-Apr-19 11:54N 35°60' W 005°15'511.5
2018-Apr-19 11:30N 35°59' W 005°21'612.1
2018-Apr-19 11:00N 35°57' W 005°28'15010.6
2018-Apr-18 20:54N 36°24' W 008°31'511.5
2018-Apr-18 20:29N 36°25' W 008°37'711.4
2018-Apr-18 19:54N 36°27' W 008°45'511.4
2018-Apr-18 19:28N 36°28' W 008°51'511.4
2018-Apr-18 19:00N 36°30' W 008°57'1011.5
2018-Apr-18 18:07N 36°33' W 009°09'211.5
2018-Apr-18 17:55N 36°33' W 009°12'1411.1
2018-Apr-18 16:39N 36°42' W 009°26'411.2
2018-Apr-18 16:16N 36°45' W 009°30'411.3
2018-Apr-18 15:53N 36°48' W 009°33'3911.6
2018-Apr-18 12:32N 37°26' W 009°45'412.0
2018-Apr-18 12:14N 37°29' W 009°46'312.0
2018-Apr-18 12:00N 37°32' W 009°47'612.1
2018-Apr-18 11:30N 37°38' W 009°49'612.4
2018-Apr-18 11:00N 37°44' W 009°50'612.2
2018-Apr-18 10:30N 37°50' W 009°52'612.3
2018-Apr-18 10:00N 37°56' W 009°53'612.2
2018-Apr-18 09:30N 38°02' W 009°54'612.1
2018-Apr-18 09:00N 38°08' W 009°56'612.0
2018-Apr-18 08:30N 38°14' W 009°58'612.2
2018-Apr-18 08:00N 38°20' W 009°60'612.0
2018-Apr-18 07:30N 38°26' W 010°01'612.2
2018-Apr-18 07:00N 38°32' W 010°03'612.7
2018-Apr-18 06:30N 38°38' W 010°04'612.3
2018-Apr-18 06:00N 38°44' W 010°06'611.9
2018-Apr-18 05:30N 38°50' W 010°07'612.0
2018-Apr-18 05:00N 38°56' W 010°07'611.5
2018-Apr-18 04:30N 39°02' W 010°07'611.5
2018-Apr-18 04:00N 39°07' W 010°07'611.3
2018-Apr-18 03:30N 39°13' W 010°07'611.6
2018-Apr-18 03:00N 39°19' W 010°07'611.7
2018-Apr-18 02:30N 39°25' W 010°07'612.2
2018-Apr-18 02:00N 39°31' W 010°07'712.1
2018-Apr-18 01:26N 39°37' W 010°06'712.3
2018-Apr-18 00:51N 39°45' W 010°06'512.3
2018-Apr-18 00:28N 39°49' W 010°06'612.0
2018-Apr-18 00:00N 39°55' W 010°07'612.0
2018-Apr-17 23:29N 40°01' W 010°07'612.0
2018-Apr-17 23:00N 40°07' W 010°07'612.1
2018-Apr-17 22:30N 40°13' W 010°08'612.0
2018-Apr-17 22:00N 40°19' W 010°08'612.2
2018-Apr-17 21:30N 40°25' W 010°07'612.2
2018-Apr-17 20:59N 40°31' W 010°07'1111.9
2018-Apr-17 20:06N 40°42' W 010°08'111.6
2018-Apr-17 20:00N 40°43' W 010°08'611.6
2018-Apr-17 19:29N 40°49' W 010°07'  
2018-Apr-15 08:19N 49°03' W 005°24'8510.2
2018-Apr-14 23:57N 49°46' W 003°31'613.3
2018-Apr-14 23:30N 49°49' W 003°23'713.2
2018-Apr-14 22:59N 49°53' W 003°13'712.7
2018-Apr-14 22:24N 49°57' W 003°04'512.2
2018-Apr-14 22:00N 49°59' W 002°57'611.7
2018-Apr-14 21:30N 50°01' W 002°48'611.1
2018-Apr-14 21:00N 50°03' W 002°40'510.4
2018-Apr-14 20:30N 50°04' W 002°33'7 9.6
2018-Apr-14 19:48N 50°06' W 002°23'3 9.0
2018-Apr-14 19:27N 50°07' W 002°18'4 8.7
2018-Apr-14 18:57N 50°08' W 002°11'4 8.6
2018-Apr-14 18:30N 50°09' W 002°05'4 8.8
2018-Apr-14 18:00N 50°10' W 001°59'5 9.3
2018-Apr-14 17:31N 50°11' W 001°52'510.0
2018-Apr-14 17:00N 50°12' W 001°44'511.0
2018-Apr-14 16:31N 50°14' W 001°36'612.0
2018-Apr-14 16:00N 50°15' W 001°27'612.9
2018-Apr-14 15:30N 50°17' W 001°17'713.9
2018-Apr-14 15:00N 50°19' W 001°07'714.6
2018-Apr-14 14:30N 50°21' W 000°56'714.8
2018-Apr-14 14:00N 50°23' W 000°45'714.6
2018-Apr-14 13:30N 50°25' W 000°34'714.2
2018-Apr-14 13:00N 50°27' W 000°23'713.7
2018-Apr-14 12:30N 50°29' W 000°13'713.2
2018-Apr-14 12:00N 50°31' W 000°03'612.7
2018-Apr-14 11:30N 50°32' E 000°07'612.4
2018-Apr-14 11:00N 50°34' E 000°17'611.9
2018-Apr-14 10:30N 50°35' E 000°26'611.4
2018-Apr-14 10:00N 50°37' E 000°34'510.7
2018-Apr-14 09:30N 50°39' E 000°42'510.9
2018-Apr-14 09:00N 50°43' E 000°48'510.7
2018-Apr-14 08:30N 50°46' E 000°55'510.9
2018-Apr-14 08:00N 50°50' E 001°01'611.5
2018-Apr-14 07:30N 50°53' E 001°08'612.4
2018-Apr-14 06:59N 50°58' E 001°16'713.5
2018-Apr-14 06:30N 51°02' E 001°24'714.1
2018-Apr-14 06:00N 51°06' E 001°32'714.1
2018-Apr-14 05:30N 51°11' E 001°41'612.8
2018-Apr-14 05:00N 51°16' E 001°48'612.4
2018-Apr-14 04:30N 51°21' E 001°52'611.8
2018-Apr-14 04:00N 51°27' E 001°56'611.3
2018-Apr-14 03:30N 51°31' E 002°02'511.0
2018-Apr-14 03:00N 51°35' E 002°07'510.6
2018-Apr-14 02:30N 51°40' E 002°13'510.0
2018-Apr-14 02:00N 51°43' E 002°18'510.1
2018-Apr-14 01:29N 51°47' E 002°24'510.0
2018-Apr-14 00:59N 51°51' E 002°29'5 9.9
2018-Apr-14 00:30N 51°55' E 002°34'1710.5
2018-Apr-13 22:51N 52°11' E 002°40'511.5
2018-Apr-13 22:27N 52°16' E 002°41'1112.1
2018-Apr-13 21:32N 52°26' E 002°49'2112.7
2018-Apr-13 19:51N 52°45' E 003°06'26611.3
2018-Apr-12 20:12N 56°29' E 007°14'411.6
2018-Apr-12 19:51N 56°32' E 007°18'411.7
2018-Apr-12 19:29N 56°36' E 007°22'611.9
2018-Apr-12 19:00N 56°41' E 007°28'712.1
2018-Apr-12 18:27N 56°46' E 007°35'612.2
2018-Apr-12 17:59N 56°51' E 007°41'612.3
2018-Apr-12 17:30N 56°55' E 007°49'612.2
2018-Apr-12 17:00N 56°60' E 007°56'612.2
2018-Apr-12 16:29N 57°05' E 008°03'2412.6
2018-Apr-12 14:33N 57°24' E 008°31'112.6
2018-Apr-12 14:30N 57°24' E 008°32'712.7
2018-Apr-12 13:57N 57°29' E 008°40'3912.5
2018-Apr-12 10:51N 57°44' E 009°47'513.6
2018-Apr-12 10:29N 57°45' E 009°56'713.6
2018-Apr-12 10:00N 57°47' E 010°08'713.1
2018-Apr-12 09:30N 57°47' E 010°20'613.1
2018-Apr-12 09:00N 57°47' E 010°33'612.6
2018-Apr-12 08:30N 57°47' E 010°44'611.4
2018-Apr-12 08:00N 57°44' E 010°53'611.4
2018-Apr-12 07:30N 57°40' E 011°01'611.6
2018-Apr-12 07:00N 57°36' E 011°09'611.6
2018-Apr-12 06:30N 57°32' E 011°17'611.4
2018-Apr-12 06:00N 57°28' E 011°25'611.1
2018-Apr-12 05:30N 57°23' E 011°29'611.4
2018-Apr-12 05:00N 57°18' E 011°32'611.0
2018-Apr-12 04:30N 57°13' E 011°36'611.0
2018-Apr-12 04:00N 57°07' E 011°39'611.2
2018-Apr-12 03:30N 57°02' E 011°42'611.3
2018-Apr-12 03:00N 56°57' E 011°46'1410.8
2018-Apr-12 01:42N 56°43' E 011°51'210.9
2018-Apr-12 01:30N 56°41' E 011°49'711.0
2018-Apr-12 00:53N 56°35' E 011°43'410.7
2018-Apr-12 00:30N 56°32' E 011°39'6810.9
2018-Apr-11 18:12N 55°28' E 010°56'311.5
2018-Apr-11 17:59N 55°26' E 010°58'712.2
2018-Apr-11 17:25N 55°19' E 011°02'513.1
2018-Apr-11 17:00N 55°14' E 011°06'611.0
2018-Apr-11 16:30N 55°10' E 011°01'612.7
2018-Apr-11 16:00N 55°03' E 011°00'612.2
2018-Apr-11 15:30N 54°58' E 010°56'510.0
2018-Apr-11 15:00N 54°54' E 010°51'612.2
2018-Apr-11 14:30N 54°48' E 010°49'611.5
2018-Apr-11 14:00N 54°42' E 010°47'611.2
2018-Apr-11 13:30N 54°38' E 010°54'611.5
2018-Apr-11 13:00N 54°36' E 011°03'611.9
2018-Apr-11 12:30N 54°35' E 011°13'612.0
2018-Apr-11 12:00N 54°33' E 011°22'612.1
2018-Apr-11 11:30N 54°30' E 011°32'612.0
2018-Apr-11 11:00N 54°28' E 011°41'611.7
2018-Apr-11 10:30N 54°26' E 011°51'611.6
2018-Apr-11 10:00N 54°26' E 012°01'611.1
2018-Apr-11 09:29N 54°27' E 012°11'511.1
2018-Apr-11 09:00N 54°32' E 012°14'5 9.8
2018-Apr-11 08:30N 54°37' E 012°16'510.9
2018-Apr-11 08:00N 54°39' E 012°25'610.9
2018-Apr-11 07:30N 54°43' E 012°32'610.8
2018-Apr-11 06:55N 54°46' E 012°41'510.6
2018-Apr-11 06:29N 54°48' E 012°48'510.9
2018-Apr-11 06:00N 54°50' E 012°56'611.2
2018-Apr-11 05:30N 54°52' E 013°06'711.3
2018-Apr-11 04:54N 54°55' E 013°17'711.4
2018-Apr-11 04:15N 54°57' E 013°29'311.7
2018-Apr-11 04:00N 54°58' E 013°34'611.6
2018-Apr-11 03:30N 55°00' E 013°43'611.4
2018-Apr-11 03:00N 55°02' E 013°53'611.5
2018-Apr-11 02:30N 55°04' E 014°02'611.5
2018-Apr-11 02:00N 55°08' E 014°09'611.2
2018-Apr-11 01:30N 55°13' E 014°15'611.1
2018-Apr-11 01:00N 55°17' E 014°22'510.9
2018-Apr-11 00:30N 55°21' E 014°28'611.0
2018-Apr-11 00:00N 55°25' E 014°34'611.4
2018-Apr-10 23:30N 55°29' E 014°42'611.7
2018-Apr-10 23:00N 55°31' E 014°52'611.8
2018-Apr-10 22:29N 55°34' E 015°02'611.8
2018-Apr-10 22:00N 55°36' E 015°11'611.9
2018-Apr-10 21:30N 55°38' E 015°20'611.9
2018-Apr-10 21:00N 55°39' E 015°31'611.7
2018-Apr-10 20:30N 55°42' E 015°40'612.0
2018-Apr-10 20:00N 55°44' E 015°50'611.9
2018-Apr-10 19:30N 55°45' E 016°00'611.8
2018-Apr-10 19:00N 55°47' E 016°11'611.8
2018-Apr-10 18:30N 55°48' E 016°21'611.8
2018-Apr-10 18:00N 55°50' E 016°31'611.8
2018-Apr-10 17:30N 55°51' E 016°41'611.7
2018-Apr-10 17:00N 55°53' E 016°51'711.7
2018-Apr-10 16:26N 55°54' E 017°03'711.7
2018-Apr-10 15:49N 55°56' E 017°15'411.8
2018-Apr-10 15:29N 55°57' E 017°22'2111.6
2018-Apr-10 13:41N 56°05' E 017°57'211.7
2018-Apr-10 13:29N 56°06' E 018°00'1011.8
2018-Apr-10 12:39N 56°12' E 018°15'  
Track history (hours):
 
Tides and Currents Weather Stations Pressure Air Temp Water Temp Dewpoint Dewpoint Depression Visibility Wind Speed Wind Dir Waves Ship Positions

Ssi Glorious

Last reported at 2018-Apr-19 11:54 UTC. Time now 2018-Apr-24 14:45 UTC.
Position N 35°60' W 005°15'.

Length 190 m; draft 12.3 m.

Type: Cargo ship. MMSI: 538004446.

Date/timePositionNaut miles runAvg speedWind from/ knotsBaromVisibWave heightAir tempDewpointWater temp
2018-Apr-19 11:54N 35°60' W 005°15'511.5
2018-Apr-19 11:30N 35°59' W 005°21'612.1
2018-Apr-19 11:00N 35°57' W 005°28'15010.6
2018-Apr-18 20:54N 36°24' W 008°31'511.5
2018-Apr-18 20:29N 36°25' W 008°37'711.4
2018-Apr-18 19:54N 36°27' W 008°45'511.4
2018-Apr-18 19:28N 36°28' W 008°51'511.4
2018-Apr-18 19:00N 36°30' W 008°57'1011.5
2018-Apr-18 18:07N 36°33' W 009°09'211.5
2018-Apr-18 17:55N 36°33' W 009°12'1411.1
2018-Apr-18 16:39N 36°42' W 009°26'411.2
2018-Apr-18 16:16N 36°45' W 009°30'411.3
2018-Apr-18 15:53N 36°48' W 009°33'3911.6
2018-Apr-18 12:32N 37°26' W 009°45'412.0
2018-Apr-18 12:14N 37°29' W 009°46'312.0
2018-Apr-18 12:00N 37°32' W 009°47'612.1
2018-Apr-18 11:30N 37°38' W 009°49'612.4
2018-Apr-18 11:00N 37°44' W 009°50'612.2
2018-Apr-18 10:30N 37°50' W 009°52'612.3
2018-Apr-18 10:00N 37°56' W 009°53'612.2
2018-Apr-18 09:30N 38°02' W 009°54'612.1
2018-Apr-18 09:00N 38°08' W 009°56'612.0
2018-Apr-18 08:30N 38°14' W 009°58'612.2
2018-Apr-18 08:00N 38°20' W 009°60'612.0
2018-Apr-18 07:30N 38°26' W 010°01'612.2
2018-Apr-18 07:00N 38°32' W 010°03'612.7
2018-Apr-18 06:30N 38°38' W 010°04'612.3
2018-Apr-18 06:00N 38°44' W 010°06'611.9
2018-Apr-18 05:30N 38°50' W 010°07'612.0
2018-Apr-18 05:00N 38°56' W 010°07'611.5
2018-Apr-18 04:30N 39°02' W 010°07'611.5
2018-Apr-18 04:00N 39°07' W 010°07'611.3
2018-Apr-18 03:30N 39°13' W 010°07'611.6
2018-Apr-18 03:00N 39°19' W 010°07'611.7
2018-Apr-18 02:30N 39°25' W 010°07'612.2
2018-Apr-18 02:00N 39°31' W 010°07'712.1
2018-Apr-18 01:26N 39°37' W 010°06'712.3
2018-Apr-18 00:51N 39°45' W 010°06'512.3
2018-Apr-18 00:28N 39°49' W 010°06'612.0
2018-Apr-18 00:00N 39°55' W 010°07'612.0
2018-Apr-17 23:29N 40°01' W 010°07'612.0
2018-Apr-17 23:00N 40°07' W 010°07'612.1
2018-Apr-17 22:30N 40°13' W 010°08'612.0
2018-Apr-17 22:00N 40°19' W 010°08'612.2
2018-Apr-17 21:30N 40°25' W 010°07'612.2
2018-Apr-17 20:59N 40°31' W 010°07'1111.9
2018-Apr-17 20:06N 40°42' W 010°08'111.6
2018-Apr-17 20:00N 40°43' W 010°08'611.6
2018-Apr-17 19:29N 40°49' W 010°07'  
2018-Apr-15 08:19N 49°03' W 005°24'8510.2
2018-Apr-14 23:57N 49°46' W 003°31'613.3
2018-Apr-14 23:30N 49°49' W 003°23'713.2
2018-Apr-14 22:59N 49°53' W 003°13'712.7
2018-Apr-14 22:24N 49°57' W 003°04'512.2
2018-Apr-14 22:00N 49°59' W 002°57'611.7
2018-Apr-14 21:30N 50°01' W 002°48'611.1
2018-Apr-14 21:00N 50°03' W 002°40'510.4
2018-Apr-14 20:30N 50°04' W 002°33'7 9.6
2018-Apr-14 19:48N 50°06' W 002°23'3 9.0
2018-Apr-14 19:27N 50°07' W 002°18'4 8.7
2018-Apr-14 18:57N 50°08' W 002°11'4 8.6
2018-Apr-14 18:30N 50°09' W 002°05'4 8.8
2018-Apr-14 18:00N 50°10' W 001°59'5 9.3
2018-Apr-14 17:31N 50°11' W 001°52'510.0
2018-Apr-14 17:00N 50°12' W 001°44'511.0
2018-Apr-14 16:31N 50°14' W 001°36'612.0
2018-Apr-14 16:00N 50°15' W 001°27'612.9
2018-Apr-14 15:30N 50°17' W 001°17'713.9
2018-Apr-14 15:00N 50°19' W 001°07'714.6
2018-Apr-14 14:30N 50°21' W 000°56'714.8
2018-Apr-14 14:00N 50°23' W 000°45'714.6
2018-Apr-14 13:30N 50°25' W 000°34'714.2
2018-Apr-14 13:00N 50°27' W 000°23'713.7
2018-Apr-14 12:30N 50°29' W 000°13'713.2
2018-Apr-14 12:00N 50°31' W 000°03'612.7
2018-Apr-14 11:30N 50°32' E 000°07'612.4
2018-Apr-14 11:00N 50°34' E 000°17'611.9
2018-Apr-14 10:30N 50°35' E 000°26'611.4
2018-Apr-14 10:00N 50°37' E 000°34'510.7
2018-Apr-14 09:30N 50°39' E 000°42'510.9
2018-Apr-14 09:00N 50°43' E 000°48'510.7
2018-Apr-14 08:30N 50°46' E 000°55'510.9
2018-Apr-14 08:00N 50°50' E 001°01'611.5
2018-Apr-14 07:30N 50°53' E 001°08'612.4
2018-Apr-14 06:59N 50°58' E 001°16'713.5
2018-Apr-14 06:30N 51°02' E 001°24'714.1
2018-Apr-14 06:00N 51°06' E 001°32'714.1
2018-Apr-14 05:30N 51°11' E 001°41'612.8
2018-Apr-14 05:00N 51°16' E 001°48'612.4
2018-Apr-14 04:30N 51°21' E 001°52'611.8
2018-Apr-14 04:00N 51°27' E 001°56'611.3
2018-Apr-14 03:30N 51°31' E 002°02'511.0
2018-Apr-14 03:00N 51°35' E 002°07'510.6
2018-Apr-14 02:30N 51°40' E 002°13'510.0
2018-Apr-14 02:00N 51°43' E 002°18'510.1
2018-Apr-14 01:29N 51°47' E 002°24'510.0
2018-Apr-14 00:59N 51°51' E 002°29'5 9.9
2018-Apr-14 00:30N 51°55' E 002°34'1710.5
2018-Apr-13 22:51N 52°11' E 002°40'511.5
2018-Apr-13 22:27N 52°16' E 002°41'1112.1
2018-Apr-13 21:32N 52°26' E 002°49'2112.7
2018-Apr-13 19:51N 52°45' E 003°06'26611.3
2018-Apr-12 20:12N 56°29' E 007°14'411.6
2018-Apr-12 19:51N 56°32' E 007°18'411.7
2018-Apr-12 19:29N 56°36' E 007°22'611.9
2018-Apr-12 19:00N 56°41' E 007°28'712.1
2018-Apr-12 18:27N 56°46' E 007°35'612.2
2018-Apr-12 17:59N 56°51' E 007°41'612.3
2018-Apr-12 17:30N 56°55' E 007°49'612.2
2018-Apr-12 17:00N 56°60' E 007°56'612.2
2018-Apr-12 16:29N 57°05' E 008°03'2412.6
2018-Apr-12 14:33N 57°24' E 008°31'112.6
2018-Apr-12 14:30N 57°24' E 008°32'712.7
2018-Apr-12 13:57N 57°29' E 008°40'3912.5
2018-Apr-12 10:51N 57°44' E 009°47'513.6
2018-Apr-12 10:29N 57°45' E 009°56'713.6
2018-Apr-12 10:00N 57°47' E 010°08'713.1
2018-Apr-12 09:30N 57°47' E 010°20'613.1
2018-Apr-12 09:00N 57°47' E 010°33'612.6
2018-Apr-12 08:30N 57°47' E 010°44'611.4
2018-Apr-12 08:00N 57°44' E 010°53'611.4
2018-Apr-12 07:30N 57°40' E 011°01'611.6
2018-Apr-12 07:00N 57°36' E 011°09'611.6
2018-Apr-12 06:30N 57°32' E 011°17'611.4
2018-Apr-12 06:00N 57°28' E 011°25'611.1
2018-Apr-12 05:30N 57°23' E 011°29'611.4
2018-Apr-12 05:00N 57°18' E 011°32'611.0
2018-Apr-12 04:30N 57°13' E 011°36'611.0
2018-Apr-12 04:00N 57°07' E 011°39'611.2
2018-Apr-12 03:30N 57°02' E 011°42'611.3
2018-Apr-12 03:00N 56°57' E 011°46'1410.8
2018-Apr-12 01:42N 56°43' E 011°51'210.9
2018-Apr-12 01:30N 56°41' E 011°49'711.0
2018-Apr-12 00:53N 56°35' E 011°43'410.7
2018-Apr-12 00:30N 56°32' E 011°39'6810.9
2018-Apr-11 18:12N 55°28' E 010°56'311.5
2018-Apr-11 17:59N 55°26' E 010°58'712.2
2018-Apr-11 17:25N 55°19' E 011°02'513.1
2018-Apr-11 17:00N 55°14' E 011°06'611.0
2018-Apr-11 16:30N 55°10' E 011°01'612.7
2018-Apr-11 16:00N 55°03' E 011°00'612.2
2018-Apr-11 15:30N 54°58' E 010°56'510.0
2018-Apr-11 15:00N 54°54' E 010°51'612.2
2018-Apr-11 14:30N 54°48' E 010°49'611.5
2018-Apr-11 14:00N 54°42' E 010°47'611.2
2018-Apr-11 13:30N 54°38' E 010°54'611.5
2018-Apr-11 13:00N 54°36' E 011°03'611.9
2018-Apr-11 12:30N 54°35' E 011°13'612.0
2018-Apr-11 12:00N 54°33' E 011°22'612.1
2018-Apr-11 11:30N 54°30' E 011°32'612.0
2018-Apr-11 11:00N 54°28' E 011°41'611.7
2018-Apr-11 10:30N 54°26' E 011°51'611.6
2018-Apr-11 10:00N 54°26' E 012°01'611.1
2018-Apr-11 09:29N 54°27' E 012°11'511.1
2018-Apr-11 09:00N 54°32' E 012°14'5 9.8
2018-Apr-11 08:30N 54°37' E 012°16'510.9
2018-Apr-11 08:00N 54°39' E 012°25'610.9
2018-Apr-11 07:30N 54°43' E 012°32'610.8
2018-Apr-11 06:55N 54°46' E 012°41'510.6
2018-Apr-11 06:29N 54°48' E 012°48'510.9
2018-Apr-11 06:00N 54°50' E 012°56'611.2
2018-Apr-11 05:30N 54°52' E 013°06'711.3
2018-Apr-11 04:54N 54°55' E 013°17'711.4
2018-Apr-11 04:15N 54°57' E 013°29'311.7
2018-Apr-11 04:00N 54°58' E 013°34'611.6
2018-Apr-11 03:30N 55°00' E 013°43'611.4
2018-Apr-11 03:00N 55°02' E 013°53'611.5
2018-Apr-11 02:30N 55°04' E 014°02'611.5
2018-Apr-11 02:00N 55°08' E 014°09'611.2
2018-Apr-11 01:30N 55°13' E 014°15'611.1
2018-Apr-11 01:00N 55°17' E 014°22'510.9
2018-Apr-11 00:30N 55°21' E 014°28'611.0
2018-Apr-11 00:00N 55°25' E 014°34'611.4
2018-Apr-10 23:30N 55°29' E 014°42'611.7
2018-Apr-10 23:00N 55°31' E 014°52'611.8
2018-Apr-10 22:29N 55°34' E 015°02'611.8
2018-Apr-10 22:00N 55°36' E 015°11'611.9
2018-Apr-10 21:30N 55°38' E 015°20'611.9
2018-Apr-10 21:00N 55°39' E 015°31'611.7
2018-Apr-10 20:30N 55°42' E 015°40'612.0
2018-Apr-10 20:00N 55°44' E 015°50'611.9
2018-Apr-10 19:30N 55°45' E 016°00'611.8
2018-Apr-10 19:00N 55°47' E 016°11'611.8
2018-Apr-10 18:30N 55°48' E 016°21'611.8
2018-Apr-10 18:00N 55°50' E 016°31'611.8
2018-Apr-10 17:30N 55°51' E 016°41'611.7
2018-Apr-10 17:00N 55°53' E 016°51'711.7
2018-Apr-10 16:26N 55°54' E 017°03'711.7
2018-Apr-10 15:49N 55°56' E 017°15'411.8
2018-Apr-10 15:29N 55°57' E 017°22'2111.6
2018-Apr-10 13:41N 56°05' E 017°57'211.7
2018-Apr-10 13:29N 56°06' E 018°00'1011.8
2018-Apr-10 12:39N 56°12' E 018°15'  

Dump ship's entire track history